sensor_id;sensor_type;location;lat;lon;timestamp;pressure;altitude;pressure_sealevel;temperature;humidity
61573;BME280;47465;43.094;12.434;2024-01-11T00:01:46;99295.16;;;4.60;100.00
61573;BME280;47465;43.094;12.434;2024-01-11T00:04:12;99314.50;;;4.62;100.00
61573;BME280;47465;43.094;12.434;2024-01-11T00:06:40;99207.09;;;4.06;100.00
61573;BME280;47465;43.094;12.434;2024-01-11T00:09:06;99316.31;;;4.76;100.00
61573;BME280;47465;43.094;12.434;2024-01-11T00:11:32;99332.19;;;4.86;100.00
61573;BME280;47465;43.094;12.434;2024-01-11T00:13:58;99341.78;;;4.78;100.00
61573;BME280;47465;43.094;12.434;2024-01-11T00:16:24;99236.13;;;4.24;100.00
61573;BME280;47465;43.094;12.434;2024-01-11T00:18:51;99220.28;;;4.12;100.00
61573;BME280;47465;43.094;12.434;2024-01-11T00:21:17;99256.34;;;4.28;100.00
61573;BME280;47465;43.094;12.434;2024-01-11T00:23:43;99290.75;;;4.56;100.00
61573;BME280;47465;43.094;12.434;2024-01-11T00:26:08;99257.25;;;4.33;100.00
61573;BME280;47465;43.094;12.434;2024-01-11T00:28:37;99294.25;;;4.57;100.00
61573;BME280;47465;43.094;12.434;2024-01-11T00:31:03;99281.06;;;4.49;100.00
61573;BME280;47465;43.094;12.434;2024-01-11T00:33:29;99298.66;;;4.59;100.00
61573;BME280;47465;43.094;12.434;2024-01-11T00:35:56;99231.75;;;4.23;100.00
61573;BME280;47465;43.094;12.434;2024-01-11T00:38:22;99191.22;;;3.97;100.00
61573;BME280;47465;43.094;12.434;2024-01-11T00:40:48;99218.53;;;4.13;100.00
61573;BME280;47465;43.094;12.434;2024-01-11T00:43:14;99299.53;;;4.58;100.00
61573;BME280;47465;43.094;12.434;2024-01-11T00:45:40;99281.03;;;4.50;100.00
61573;BME280;47465;43.094;12.434;2024-01-11T00:48:06;99293.38;;;4.56;100.00
61573;BME280;47465;43.094;12.434;2024-01-11T00:50:32;99272.28;;;4.50;100.00
61573;BME280;47465;43.094;12.434;2024-01-11T00:52:59;99284.59;;;4.56;100.00
61573;BME280;47465;43.094;12.434;2024-01-11T00:55:26;99306.63;;;4.68;100.00
61573;BME280;47465;43.094;12.434;2024-01-11T00:57:52;99277.53;;;4.47;100.00
61573;BME280;47465;43.094;12.434;2024-01-11T01:00:18;99260.78;;;4.34;100.00
61573;BME280;47465;43.094;12.434;2024-01-11T01:02:43;99264.28;;;4.35;100.00
61573;BME280;47465;43.094;12.434;2024-01-11T01:05:09;99192.97;;;3.93;100.00
61573;BME280;47465;43.094;12.434;2024-01-11T01:07:35;99151.59;;;3.70;100.00
61573;BME280;47465;43.094;12.434;2024-01-11T01:10:03;99237.84;;;4.16;100.00
61573;BME280;47465;43.094;12.434;2024-01-11T01:12:28;99143.72;;;3.72;100.00
61573;BME280;47465;43.094;12.434;2024-01-11T01:14:54;99178.88;;;3.82;100.00
61573;BME280;47465;43.094;12.434;2024-01-11T01:17:21;99192.00;;;3.83;100.00
61573;BME280;47465;43.094;12.434;2024-01-11T01:19:47;99165.56;;;3.60;100.00
61573;BME280;47465;43.094;12.434;2024-01-11T01:22:13;99230.75;;;4.04;100.00
61573;BME280;47465;43.094;12.434;2024-01-11T01:24:39;99270.41;;;4.32;100.00
61573;BME280;47465;43.094;12.434;2024-01-11T01:27:06;99212.28;;;3.95;100.00
61573;BME280;47465;43.094;12.434;2024-01-11T01:29:32;99258.03;;;4.20;100.00
61573;BME280;47465;43.094;12.434;2024-01-11T01:31:58;99287.09;;;4.32;100.00
61573;BME280;47465;43.094;12.434;2024-01-11T01:34:23;99304.75;;;4.47;100.00
61573;BME280;47465;43.094;12.434;2024-01-11T01:36:49;99115.44;;;3.37;100.00
61573;BME280;47465;43.094;12.434;2024-01-11T01:39:15;99118.06;;;3.34;100.00
61573;BME280;47465;43.094;12.434;2024-01-11T01:41:41;99273.91;;;4.31;100.00
61573;BME280;47465;43.094;12.434;2024-01-11T01:44:08;99155.13;;;3.69;100.00
61573;BME280;47465;43.094;12.434;2024-01-11T01:46:34;99255.47;;;4.28;100.00
61573;BME280;47465;43.094;12.434;2024-01-11T01:49:00;99211.41;;;3.98;100.00
61573;BME280;47465;43.094;12.434;2024-01-11T01:51:29;99288.03;;;4.44;100.00
61573;BME280;47465;43.094;12.434;2024-01-11T01:53:57;99229.03;;;4.09;100.00
61573;BME280;47465;43.094;12.434;2024-01-11T01:56:24;99234.28;;;4.09;100.00
61573;BME280;47465;43.094;12.434;2024-01-11T01:58:51;99153.28;;;3.56;100.00
61573;BME280;47465;43.094;12.434;2024-01-11T02:01:19;99204.38;;;3.94;100.00
61573;BME280;47465;43.094;12.434;2024-01-11T02:03:46;99259.81;;;4.24;100.00
61573;BME280;47465;43.094;12.434;2024-01-11T02:06:15;99214.06;;;4.01;100.00
61573;BME280;47465;43.094;12.434;2024-01-11T02:08:42;99254.63;;;4.32;100.00
61573;BME280;47465;43.094;12.434;2024-01-11T02:11:10;99166.56;;;3.79;100.00
61573;BME280;47465;43.094;12.434;2024-01-11T02:13:37;99280.19;;;4.51;100.00
61573;BME280;47465;43.094;12.434;2024-01-11T02:16:03;99195.66;;;3.99;100.00
61573;BME280;47465;43.094;12.434;2024-01-11T02:18:31;99100.66;;;3.53;100.00
61573;BME280;47465;43.094;12.434;2024-01-11T02:20:56;99083.94;;;3.42;100.00
61573;BME280;47465;43.094;12.434;2024-01-11T02:23:24;99198.28;;;3.99;100.00
61573;BME280;47465;43.094;12.434;2024-01-11T02:25:53;99241.44;;;4.27;100.00
61573;BME280;47465;43.094;12.434;2024-01-11T02:28:19;99259.91;;;4.37;100.00
61573;BME280;47465;43.094;12.434;2024-01-11T02:30:44;99117.34;;;3.57;100.00
61573;BME280;47465;43.094;12.434;2024-01-11T02:33:10;99235.28;;;4.31;100.00
61573;BME280;47465;43.094;12.434;2024-01-11T02:35:41;99240.53;;;4.24;100.00
61573;BME280;47465;43.094;12.434;2024-01-11T02:38:08;99258.16;;;4.39;100.00
61573;BME280;47465;43.094;12.434;2024-01-11T02:40:35;99236.16;;;4.26;100.00
61573;BME280;47465;43.094;12.434;2024-01-11T02:43:09;99110.28;;;3.49;100.00
61573;BME280;47465;43.094;12.434;2024-01-11T02:45:34;99217.66;;;4.18;100.00
61573;BME280;47465;43.094;12.434;2024-01-11T02:48:00;99181.63;;;4.02;100.00
61573;BME280;47465;43.094;12.434;2024-01-11T02:50:26;99220.38;;;4.27;100.00
61573;BME280;47465;43.094;12.434;2024-01-11T02:52:52;99250.28;;;4.46;100.00
61573;BME280;47465;43.094;12.434;2024-01-11T02:55:17;99179.00;;;4.02;100.00
61573;BME280;47465;43.094;12.434;2024-01-11T02:57:43;99221.22;;;4.22;100.00
61573;BME280;47465;43.094;12.434;2024-01-11T03:00:12;99249.41;;;4.46;100.00
61573;BME280;47465;43.094;12.434;2024-01-11T03:02:38;99171.06;;;3.97;100.00
61573;BME280;47465;43.094;12.434;2024-01-11T03:05:04;99193.06;;;4.08;100.00
61573;BME280;47465;43.094;12.434;2024-01-11T03:07:30;99202.78;;;4.20;100.00
61573;BME280;47465;43.094;12.434;2024-01-11T03:09:56;99205.38;;;4.13;100.00
61573;BME280;47465;43.094;12.434;2024-01-11T03:12:22;99156.13;;;3.91;100.00
61573;BME280;47465;43.094;12.434;2024-01-11T03:14:47;99136.69;;;3.68;100.00
61573;BME280;47465;43.094;12.434;2024-01-11T03:17:15;99197.47;;;4.13;100.00
61573;BME280;47465;43.094;12.434;2024-01-11T03:19:40;99239.75;;;4.43;100.00
61573;BME280;47465;43.094;12.434;2024-01-11T03:22:07;99199.25;;;4.18;100.00
61573;BME280;47465;43.094;12.434;2024-01-11T03:24:33;99186.97;;;4.20;100.00
61573;BME280;47465;43.094;12.434;2024-01-11T03:26:59;99164.06;;;4.01;100.00
61573;BME280;47465;43.094;12.434;2024-01-11T03:29:24;99242.44;;;4.49;100.00
61573;BME280;47465;43.094;12.434;2024-01-11T03:31:50;99219.53;;;4.35;100.00
61573;BME280;47465;43.094;12.434;2024-01-11T03:34:17;99244.19;;;4.52;100.00
61573;BME280;47465;43.094;12.434;2024-01-11T03:36:43;99228.34;;;4.46;100.00
61573;BME280;47465;43.094;12.434;2024-01-11T03:39:09;99167.66;;;4.15;100.00
61573;BME280;47465;43.094;12.434;2024-01-11T03:41:35;99131.56;;;3.89;100.00
61573;BME280;47465;43.094;12.434;2024-01-11T03:44:00;99075.25;;;3.54;100.00
61573;BME280;47465;43.094;12.434;2024-01-11T03:46:26;99114.78;;;3.69;100.00
61573;BME280;47465;43.094;12.434;2024-01-11T03:48:52;99201.03;;;4.24;100.00
61573;BME280;47465;43.094;12.434;2024-01-11T03:51:20;99192.25;;;4.19;100.00
61573;BME280;47465;43.094;12.434;2024-01-11T03:53:45;99115.63;;;3.66;100.00
61573;BME280;47465;43.094;12.434;2024-01-11T03:56:11;99119.16;;;3.70;100.00
61573;BME280;47465;43.094;12.434;2024-01-11T03:58:37;99198.38;;;4.19;100.00
61573;BME280;47465;43.094;12.434;2024-01-11T04:01:04;99174.66;;;4.11;100.00
61573;BME280;47465;43.094;12.434;2024-01-11T04:03:32;99147.34;;;3.86;100.00
61573;BME280;47465;43.094;12.434;2024-01-11T04:05:58;99242.44;;;4.52;100.00
61573;BME280;47465;43.094;12.434;2024-01-11T04:08:25;99260.88;;;4.54;100.00
61573;BME280;47465;43.094;12.434;2024-01-11T04:10:51;99182.56;;;4.10;100.00
61573;BME280;47465;43.094;12.434;2024-01-11T04:13:17;99239.75;;;4.42;100.00
61573;BME280;47465;43.094;12.434;2024-01-11T04:15:43;99245.00;;;4.37;100.00
61573;BME280;47465;43.094;12.434;2024-01-11T04:18:09;99162.22;;;3.83;100.00
61573;BME280;47465;43.094;12.434;2024-01-11T04:20:35;99247.66;;;4.40;100.00
61573;BME280;47465;43.094;12.434;2024-01-11T04:23:00;99157.00;;;3.97;100.00
61573;BME280;47465;43.094;12.434;2024-01-11T04:25:28;99216.81;;;4.18;100.00
61573;BME280;47465;43.094;12.434;2024-01-11T04:27:53;99197.47;;;4.08;100.00
61573;BME280;47465;43.094;12.434;2024-01-11T04:30:19;99225.59;;;4.20;100.00
61573;BME280;47465;43.094;12.434;2024-01-11T04:32:45;99168.34;;;3.85;100.00
61573;BME280;47465;43.094;12.434;2024-01-11T04:35:11;99254.63;;;4.35;100.00
61573;BME280;47465;43.094;12.434;2024-01-11T04:37:37;99094.47;;;3.43;100.00
61573;BME280;47465;43.094;12.434;2024-01-11T04:40:05;99153.50;;;3.88;100.00
61573;BME280;47465;43.094;12.434;2024-01-11T04:42:34;99141.09;;;3.69;100.00
61573;BME280;47465;43.094;12.434;2024-01-11T04:45:00;99080.31;;;3.24;100.00
61573;BME280;47465;43.094;12.434;2024-01-11T04:47:26;99148.09;;;3.70;100.00
61573;BME280;47465;43.094;12.434;2024-01-11T04:49:51;99105.84;;;3.44;100.00
61573;BME280;47465;43.094;12.434;2024-01-11T04:52:17;99156.81;;;3.66;100.00
61573;BME280;47465;43.094;12.434;2024-01-11T04:54:43;99209.66;;;3.95;100.00
61573;BME280;47465;43.094;12.434;2024-01-11T04:57:09;99194.63;;;3.80;100.00
61573;BME280;47465;43.094;12.434;2024-01-11T04:59:36;99148.84;;;3.52;100.00
61573;BME280;47465;43.094;12.434;2024-01-11T05:02:02;99167.25;;;3.50;100.00
61573;BME280;47465;43.094;12.434;2024-01-11T05:04:28;99093.41;;;3.17;100.00
61573;BME280;47465;43.094;12.434;2024-01-11T05:06:54;99140.00;;;3.39;100.00
61573;BME280;47465;43.094;12.434;2024-01-11T05:09:20;99130.31;;;3.32;100.00
61573;BME280;47465;43.094;12.434;2024-01-11T05:11:46;99208.66;;;3.81;100.00
61573;BME280;47465;43.094;12.434;2024-01-11T05:14:11;99234.19;;;3.93;100.00
61573;BME280;47465;43.094;12.434;2024-01-11T05:16:39;99249.19;;;4.04;100.00
61573;BME280;47465;43.094;12.434;2024-01-11T05:19:05;99202.53;;;3.80;100.00
61573;BME280;47465;43.094;12.434;2024-01-11T05:21:30;99133.03;;;3.43;100.00
61573;BME280;47465;43.094;12.434;2024-01-11T05:23:56;99244.81;;;4.09;100.00
61573;BME280;47465;43.094;12.434;2024-01-11T05:26:23;99207.81;;;3.82;100.00
61573;BME280;47465;43.094;12.434;2024-01-11T05:28:48;99213.09;;;3.85;100.00
61573;BME280;47465;43.094;12.434;2024-01-11T05:31:15;99243.97;;;4.10;100.00
61573;BME280;47465;43.094;12.434;2024-01-11T05:33:43;99177.03;;;3.67;100.00
61573;BME280;47465;43.094;12.434;2024-01-11T05:36:09;99209.63;;;3.90;100.00
61573;BME280;47465;43.094;12.434;2024-01-11T05:38:35;99192.00;;;3.79;100.00
61573;BME280;47465;43.094;12.434;2024-01-11T05:41:01;99150.63;;;3.58;100.00
61573;BME280;47465;43.094;12.434;2024-01-11T05:43:27;99191.06;;;3.75;100.00
61573;BME280;47465;43.094;12.434;2024-01-11T05:45:53;99133.91;;;3.43;100.00
61573;BME280;47465;43.094;12.434;2024-01-11T05:48:19;99227.22;;;4.01;100.00
61573;BME280;47465;43.094;12.434;2024-01-11T05:50:46;99173.50;;;3.68;100.00
61573;BME280;47465;43.094;12.434;2024-01-11T05:53:12;99055.53;;;2.92;100.00
61573;BME280;47465;43.094;12.434;2024-01-11T05:55:39;99249.16;;;4.03;100.00
61573;BME280;47465;43.094;12.434;2024-01-11T05:58:05;99205.97;;;3.70;100.00
61573;BME280;47465;43.094;12.434;2024-01-11T06:00:31;99160.22;;;3.48;100.00
61573;BME280;47465;43.094;12.434;2024-01-11T06:02:57;99090.69;;;3.09;100.00
61573;BME280;47465;43.094;12.434;2024-01-11T06:05:23;99083.59;;;2.99;100.00
61573;BME280;47465;43.094;12.434;2024-01-11T06:07:51;99117.97;;;3.22;100.00
61573;BME280;47465;43.094;12.434;2024-01-11T06:10:17;99126.78;;;3.30;100.00
61573;BME280;47465;43.094;12.434;2024-01-11T06:12:43;99068.69;;;2.95;100.00
61573;BME280;47465;43.094;12.434;2024-01-11T06:15:09;99158.41;;;3.41;100.00
61573;BME280;47465;43.094;12.434;2024-01-11T06:17:35;99137.22;;;3.22;100.00
61573;BME280;47465;43.094;12.434;2024-01-11T06:20:01;99149.50;;;3.22;100.00
61573;BME280;47465;43.094;12.434;2024-01-11T06:22:27;99210.31;;;3.68;100.00
61573;BME280;47465;43.094;12.434;2024-01-11T06:24:54;99161.00;;;3.36;100.00
61573;BME280;47465;43.094;12.434;2024-01-11T06:27:20;99219.09;;;3.68;100.00
61573;BME280;47465;43.094;12.434;2024-01-11T06:29:46;99254.34;;;3.90;100.00
61573;BME280;47465;43.094;12.434;2024-01-11T06:32:12;99190.03;;;3.50;100.00
61573;BME280;47465;43.094;12.434;2024-01-11T06:34:37;99154.81;;;3.28;100.00
61573;BME280;47465;43.094;12.434;2024-01-11T06:37:04;99252.50;;;3.80;100.00
61573;BME280;47465;43.094;12.434;2024-01-11T06:39:29;99214.59;;;3.55;100.00
61573;BME280;47465;43.094;12.434;2024-01-11T06:41:57;99134.44;;;3.02;100.00
61573;BME280;47465;43.094;12.434;2024-01-11T06:44:23;99199.72;;;3.56;100.00
61573;BME280;47465;43.094;12.434;2024-01-11T06:46:49;99179.44;;;3.42;100.00
61573;BME280;47465;43.094;12.434;2024-01-11T06:49:16;99122.22;;;3.07;100.00
61573;BME280;47465;43.094;12.434;2024-01-11T06:51:42;99230.50;;;3.69;100.00
61573;BME280;47465;43.094;12.434;2024-01-11T06:54:07;99123.97;;;3.08;100.00
61573;BME280;47465;43.094;12.434;2024-01-11T06:56:33;99197.94;;;3.55;100.00
61573;BME280;47465;43.094;12.434;2024-01-11T06:59:01;99123.19;;;3.20;100.00
61573;BME280;47465;43.094;12.434;2024-01-11T07:01:27;99223.66;;;3.91;100.00
61573;BME280;47465;43.094;12.434;2024-01-11T07:03:52;99102.13;;;3.13;100.00
61573;BME280;47465;43.094;12.434;2024-01-11T07:06:18;99056.44;;;2.97;100.00
61573;BME280;47465;43.094;12.434;2024-01-11T07:08:44;99125.97;;;3.37;100.00
61573;BME280;47465;43.094;12.434;2024-01-11T07:11:10;99210.53;;;3.93;100.00
61573;BME280;47465;43.094;12.434;2024-01-11T07:13:36;99207.91;;;3.96;100.00
61573;BME280;47465;43.094;12.434;2024-01-11T07:16:04;99207.91;;;4.00;100.00
61573;BME280;47465;43.094;12.434;2024-01-11T07:18:31;99179.81;;;3.93;100.00
61573;BME280;47465;43.094;12.434;2024-01-11T07:20:57;99243.19;;;4.31;100.00
61573;BME280;47465;43.094;12.434;2024-01-11T07:23:23;99215.97;;;4.26;100.00
61573;BME280;47465;43.094;12.434;2024-01-11T07:25:49;99148.22;;;3.91;100.00
61573;BME280;47465;43.094;12.434;2024-01-11T07:28:15;99189.56;;;4.14;100.00
61573;BME280;47465;43.094;12.434;2024-01-11T07:30:42;99205.47;;;4.32;100.00
61573;BME280;47465;43.094;12.434;2024-01-11T07:33:10;99136.88;;;4.00;100.00
61573;BME280;47465;43.094;12.434;2024-01-11T07:35:36;99154.47;;;4.09;100.00
61573;BME280;47465;43.094;12.434;2024-01-11T07:38:02;99215.19;;;4.43;100.00
61573;BME280;47465;43.094;12.434;2024-01-11T07:40:28;99205.56;;;4.54;100.00
61573;BME280;47465;43.094;12.434;2024-01-11T07:42:54;99246.09;;;4.87;100.00
61573;BME280;47465;43.094;12.434;2024-01-11T07:45:20;99177.47;;;4.53;100.00
61573;BME280;47465;43.094;12.434;2024-01-11T07:47:46;99237.34;;;4.97;100.00
61573;BME280;47465;43.094;12.434;2024-01-11T07:50:14;99208.34;;;4.91;100.00
61573;BME280;47465;43.094;12.434;2024-01-11T07:52:39;99232.09;;;5.11;100.00
61573;BME280;47465;43.094;12.434;2024-01-11T07:55:08;99200.44;;;4.97;100.00
61573;BME280;47465;43.094;12.434;2024-01-11T07:57:35;99209.25;;;5.18;100.00
61573;BME280;47465;43.094;12.434;2024-01-11T08:00:01;99232.16;;;5.34;100.00
61573;BME280;47465;43.094;12.434;2024-01-11T08:02:28;99190.81;;;5.18;100.00
61573;BME280;47465;43.094;12.434;2024-01-11T08:04:54;99200.47;;;5.20;100.00
61573;BME280;47465;43.094;12.434;2024-01-11T08:07:21;99156.53;;;5.04;100.00
61573;BME280;47465;43.094;12.434;2024-01-11T08:09:47;99130.19;;;4.99;100.00
61573;BME280;47465;43.094;12.434;2024-01-11T08:12:13;99150.38;;;5.11;100.00
61573;BME280;47465;43.094;12.434;2024-01-11T08:14:39;99181.16;;;5.44;100.00
61573;BME280;47465;43.094;12.434;2024-01-11T08:17:07;99134.56;;;5.26;100.00
61573;BME280;47465;43.094;12.434;2024-01-11T08:19:34;99126.66;;;5.22;100.00
61573;BME280;47465;43.094;12.434;2024-01-11T08:22:00;99196.97;;;5.66;100.00
61573;BME280;47465;43.094;12.434;2024-01-11T08:24:27;99210.19;;;5.80;100.00
61573;BME280;47465;43.094;12.434;2024-01-11T08:26:53;99199.59;;;5.83;100.00
61573;BME280;47465;43.094;12.434;2024-01-11T08:29:19;99170.59;;;5.76;100.00
61573;BME280;47465;43.094;12.434;2024-01-11T08:31:45;99186.41;;;5.84;100.00
61573;BME280;47465;43.094;12.434;2024-01-11T08:34:11;99172.31;;;5.85;100.00
61573;BME280;47465;43.094;12.434;2024-01-11T08:36:37;99151.28;;;5.51;100.00
61573;BME280;47465;43.094;12.434;2024-01-11T08:39:04;99099.41;;;5.40;100.00
61573;BME280;47465;43.094;12.434;2024-01-11T08:41:33;99230.31;;;6.50;100.00
61573;BME280;47465;43.094;12.434;2024-01-11T08:43:58;99154.72;;;6.12;100.00
61573;BME280;47465;43.094;12.434;2024-01-11T08:46:25;99155.56;;;6.20;100.00
61573;BME280;47465;43.094;12.434;2024-01-11T08:48:51;99209.06;;;6.77;100.00
61573;BME280;47465;43.094;12.434;2024-01-11T08:51:17;99205.63;;;6.54;100.00
61573;BME280;47465;43.094;12.434;2024-01-11T08:53:42;99221.44;;;6.65;100.00
61573;BME280;47465;43.094;12.434;2024-01-11T08:56:10;99223.16;;;6.81;100.00
61573;BME280;47465;43.094;12.434;2024-01-11T08:58:37;99123.81;;;6.32;100.00
61573;BME280;47465;43.094;12.434;2024-01-11T09:01:03;99186.16;;;6.76;100.00
61573;BME280;47465;43.094;12.434;2024-01-11T09:03:29;99187.84;;;6.87;100.00
61573;BME280;47465;43.094;12.434;2024-01-11T09:05:55;99213.41;;;6.91;100.00
61573;BME280;47465;43.094;12.434;2024-01-11T09:08:22;99181.72;;;6.82;100.00
61573;BME280;47465;43.094;12.434;2024-01-11T09:10:48;99181.69;;;6.88;100.00
61573;BME280;47465;43.094;12.434;2024-01-11T09:13:14;99207.13;;;7.10;100.00
61573;BME280;47465;43.094;12.434;2024-01-11T09:15:42;99147.38;;;6.82;100.00
61573;BME280;47465;43.094;12.434;2024-01-11T09:18:08;99067.44;;;6.44;100.00
61573;BME280;47465;43.094;12.434;2024-01-11T09:20:35;99125.41;;;6.66;100.00
61573;BME280;47465;43.094;12.434;2024-01-11T09:23:01;99107.78;;;6.72;100.00
61573;BME280;47465;43.094;12.434;2024-01-11T09:25:29;99147.28;;;6.94;100.00
61573;BME280;47465;43.094;12.434;2024-01-11T09:27:54;99215.69;;;7.49;100.00
61573;BME280;47465;43.094;12.434;2024-01-11T09:30:20;99179.66;;;7.30;100.00
61573;BME280;47465;43.094;12.434;2024-01-11T09:32:47;99208.69;;;7.42;100.00
61573;BME280;47465;43.094;12.434;2024-01-11T09:59:30;99179.13;;;7.93;100.00
61573;BME280;47465;43.094;12.434;2024-01-11T10:02:00;99166.69;;;7.98;100.00
61573;BME280;47465;43.094;12.434;2024-01-11T10:04:26;99183.53;;;7.92;100.00
61573;BME280;47465;43.094;12.434;2024-01-11T10:06:53;99106.38;;;7.41;100.00
61573;BME280;47465;43.094;12.434;2024-01-11T10:09:20;99159.91;;;7.71;100.00
61573;BME280;47465;43.094;12.434;2024-01-11T10:11:46;99139.41;;;7.91;100.00
61573;BME280;47465;43.094;12.434;2024-01-11T10:14:13;99136.75;;;7.94;100.00
61573;BME280;47465;43.094;12.434;2024-01-11T10:16:41;99176.19;;;8.22;100.00
61573;BME280;47465;43.094;12.434;2024-01-11T10:19:07;99166.28;;;8.36;100.00
61573;BME280;47465;43.094;12.434;2024-01-11T10:21:37;99143.78;;;7.97;100.00
61573;BME280;47465;43.094;12.434;2024-01-11T10:24:04;98993.66;;;7.25;100.00
61573;BME280;47465;43.094;12.434;2024-01-11T10:26:30;99048.81;;;7.65;100.00
61573;BME280;47465;43.094;12.434;2024-01-11T10:28:59;99091.63;;;8.03;100.00
61573;BME280;47465;43.094;12.434;2024-01-11T10:31:28;99160.19;;;8.28;100.00
61573;BME280;47465;43.094;12.434;2024-01-11T10:33:55;99131.34;;;8.05;100.00
61573;BME280;47465;43.094;12.434;2024-01-11T10:36:21;99141.13;;;7.98;100.00
61573;BME280;47465;43.094;12.434;2024-01-11T10:38:48;99075.25;;;7.66;100.00
61573;BME280;47465;43.094;12.434;2024-01-11T10:41:18;99074.50;;;7.52;100.00
61573;BME280;47465;43.094;12.434;2024-01-11T10:43:46;99116.59;;;7.79;100.00
61573;BME280;47465;43.094;12.434;2024-01-11T10:46:15;99036.47;;;7.64;100.00
61573;BME280;47465;43.094;12.434;2024-01-11T10:48:44;99049.59;;;7.73;100.00
61573;BME280;47465;43.094;12.434;2024-01-11T10:51:15;99076.75;;;7.90;100.00
61573;BME280;47465;43.094;12.434;2024-01-11T10:53:44;99099.56;;;8.03;100.00
61573;BME280;47465;43.094;12.434;2024-01-11T10:56:11;99082.13;;;7.86;100.00
61573;BME280;47465;43.094;12.434;2024-01-11T10:58:40;99087.53;;;7.73;100.00
61573;BME280;47465;43.094;12.434;2024-01-11T11:01:06;99104.44;;;7.58;100.00
61573;BME280;47465;43.094;12.434;2024-01-11T11:03:33;99100.59;;;7.92;100.00
61573;BME280;47465;43.094;12.434;2024-01-11T11:06:00;99069.06;;;7.69;100.00
61573;BME280;47465;43.094;12.434;2024-01-11T11:08:28;99013.09;;;7.20;100.00
61573;BME280;47465;43.094;12.434;2024-01-11T11:10:55;99091.84;;;7.82;100.00
61573;BME280;47465;43.094;12.434;2024-01-11T11:13:22;99021.59;;;7.53;100.00
61573;BME280;47465;43.094;12.434;2024-01-11T11:15:48;99052.00;;;7.94;100.00
61573;BME280;47465;43.094;12.434;2024-01-11T11:18:14;99076.41;;;8.19;100.00
61573;BME280;47465;43.094;12.434;2024-01-11T11:20:41;98944.13;;;7.39;100.00
61573;BME280;47465;43.094;12.434;2024-01-11T11:23:09;99030.03;;;7.85;100.00
61573;BME280;47465;43.094;12.434;2024-01-11T11:25:38;99078.25;;;8.13;100.00
61573;BME280;47465;43.094;12.434;2024-01-11T11:28:05;98989.78;;;7.56;100.00
61573;BME280;47465;43.094;12.434;2024-01-11T11:30:32;99068.56;;;8.12;100.00
61573;BME280;47465;43.094;12.434;2024-01-11T11:32:58;98995.56;;;7.91;100.00
61573;BME280;47465;43.094;12.434;2024-01-11T11:35:32;99054.22;;;8.28;100.00
61573;BME280;47465;43.094;12.434;2024-01-11T11:37:58;99058.56;;;8.34;100.00
61573;BME280;47465;43.094;12.434;2024-01-11T11:40:32;99023.34;;;8.27;100.00
61573;BME280;47465;43.094;12.434;2024-01-11T11:43:01;99023.34;;;8.26;100.00
61573;BME280;47465;43.094;12.434;2024-01-11T11:45:27;99054.78;;;8.55;100.00
61573;BME280;47465;43.094;12.434;2024-01-11T11:47:56;99013.63;;;8.26;100.00
61573;BME280;47465;43.094;12.434;2024-01-11T11:50:22;99003.91;;;8.27;100.00
61573;BME280;47465;43.094;12.434;2024-01-11T11:52:54;99029.31;;;8.43;100.00
61573;BME280;47465;43.094;12.434;2024-01-11T11:55:22;98990.81;;;8.14;100.00
61573;BME280;47465;43.094;12.434;2024-01-11T11:57:48;98967.34;;;7.88;100.00
61573;BME280;47465;43.094;12.434;2024-01-11T12:00:16;99002.34;;;8.10;100.00
61573;BME280;47465;43.094;12.434;2024-01-11T12:02:42;99006.53;;;8.28;100.00
61573;BME280;47465;43.094;12.434;2024-01-11T12:05:08;99002.19;;;8.24;100.00
61573;BME280;47465;43.094;12.434;2024-01-11T12:07:34;98998.84;;;8.08;100.00
61573;BME280;47465;43.094;12.434;2024-01-11T12:10:00;99019.75;;;8.30;100.00
61573;BME280;47465;43.094;12.434;2024-01-11T12:12:26;98974.16;;;8.08;100.00
61573;BME280;47465;43.094;12.434;2024-01-11T12:14:53;98956.63;;;7.99;100.00
61573;BME280;47465;43.094;12.434;2024-01-11T12:17:21;99005.38;;;8.51;100.00
61573;BME280;47465;43.094;12.434;2024-01-11T12:19:46;98927.50;;;7.97;100.00
61573;BME280;47465;43.094;12.434;2024-01-11T12:22:12;98926.47;;;8.09;100.00
61573;BME280;47465;43.094;12.434;2024-01-11T12:24:38;98929.06;;;8.12;100.00
61573;BME280;47465;43.094;12.434;2024-01-11T12:27:04;98986.16;;;8.33;100.00
61573;BME280;47465;43.094;12.434;2024-01-11T12:29:30;98918.91;;;7.80;100.00
61573;BME280;47465;43.094;12.434;2024-01-11T12:31:56;98963.44;;;8.15;100.00
61573;BME280;47465;43.094;12.434;2024-01-11T12:34:25;98995.88;;;8.33;100.00
61573;BME280;47465;43.094;12.434;2024-01-11T12:36:52;98962.47;;;8.21;100.00
61573;BME280;47465;43.094;12.434;2024-01-11T12:39:19;98982.59;;;8.36;100.00
61573;BME280;47465;43.094;12.434;2024-01-11T12:41:47;98865.22;;;7.70;100.00
61573;BME280;47465;43.094;12.434;2024-01-11T12:44:13;98919.75;;;7.84;100.00
61573;BME280;47465;43.094;12.434;2024-01-11T12:46:39;98983.69;;;8.19;100.00
61573;BME280;47465;43.094;12.434;2024-01-11T12:49:05;98981.78;;;8.31;100.00
61573;BME280;47465;43.094;12.434;2024-01-11T12:51:37;98895.75;;;7.96;100.00
61573;BME280;47465;43.094;12.434;2024-01-11T12:54:03;98909.97;;;7.89;100.00
61573;BME280;47465;43.094;12.434;2024-01-11T12:56:30;98923.06;;;7.99;100.00
61573;BME280;47465;43.094;12.434;2024-01-11T12:59:05;98970.13;;;8.44;100.00
61573;BME280;47465;43.094;12.434;2024-01-11T13:39:40;98878.81;;;7.44;100.00
61573;BME280;47465;43.094;12.434;2024-01-11T13:42:07;98893.00;;;7.37;100.00
61573;BME280;47465;43.094;12.434;2024-01-11T13:44:35;98885.03;;;7.38;100.00
61573;BME280;47465;43.094;12.434;2024-01-11T13:47:00;98925.44;;;7.53;100.00
61573;BME280;47465;43.094;12.434;2024-01-11T13:49:26;98871.00;;;7.33;100.00